createdAt,value
2023-02-14T00:00:57.054Z,95.67
2023-02-14T00:01:56.902Z,96.39
2023-02-14T00:02:57.265Z,95.87
2023-02-14T00:03:57.254Z,96.12
2023-02-14T00:04:57.469Z,96.81
2023-02-14T00:05:57.556Z,97.22
2023-02-14T00:06:57.746Z,96.81
2023-02-14T00:07:57.930Z,96.44
2023-02-14T00:08:58.626Z,96.91
2023-02-14T00:09:58.424Z,96.23
2023-02-14T00:10:59.870Z,97.27
2023-02-14T00:11:59.309Z,97.06
2023-02-14T00:12:58.852Z,97.37
2023-02-14T00:13:59.764Z,96.44
2023-02-14T00:14:59.199Z,96.75
2023-02-14T00:16:00.335Z,97.16
2023-02-14T00:16:59.596Z,96.95
2023-02-14T00:18:00.772Z,97.27
2023-02-14T00:18:59.925Z,97.37
2023-02-14T00:20:00.808Z,96.75
2023-02-14T00:21:01.273Z,97.16
2023-02-14T00:22:00.565Z,96.64
2023-02-14T00:23:00.764Z,96.64
2023-02-14T00:24:00.858Z,96.27
2023-02-14T00:25:01.018Z,96.85
2023-02-14T00:26:01.195Z,96.89
2023-02-14T00:27:01.401Z,96.79
2023-02-14T00:28:01.605Z,97.20
2023-02-14T00:29:01.789Z,97.56
2023-02-14T00:30:02.074Z,97.98
2023-02-14T00:31:02.632Z,98.08
2023-02-14T00:32:02.907Z,97.67
2023-02-14T00:33:02.605Z,98.08
2023-02-14T00:34:02.792Z,97.93
2023-02-14T00:35:02.967Z,98.03
2023-02-14T00:36:03.133Z,97.56
2023-02-14T00:37:03.328Z,98.14
2023-02-14T00:38:04.277Z,98.14
2023-02-14T00:39:03.711Z,98.35
2023-02-14T00:40:03.892Z,98.14
2023-02-14T00:41:05.633Z,97.83
2023-02-14T00:42:04.249Z,98.24
2023-02-14T00:43:04.439Z,97.10
2023-02-14T00:44:04.627Z,97.31
2023-02-14T00:45:04.787Z,97.31
2023-02-14T00:46:04.986Z,97.52
2023-02-14T00:47:05.161Z,97.31
2023-02-14T00:48:06.270Z,97.41
2023-02-14T00:49:05.529Z,97.68
2023-02-14T00:50:06.311Z,97.58
2023-02-14T00:51:05.835Z,98.57
2023-02-14T00:52:06.081Z,96.91
2023-02-14T00:53:07.273Z,96.29
2023-02-14T00:54:06.411Z,97.22
2023-02-14T00:55:07.776Z,96.50
2023-02-14T00:56:06.769Z,96.70
2023-02-14T00:57:08.224Z,96.70
2023-02-14T00:58:07.812Z,96.86
2023-02-14T00:59:07.226Z,95.93
2023-02-14T01:00:07.374Z,95.31
2023-02-14T01:01:07.589Z,95.31
2023-02-14T01:02:07.846Z,94.89
2023-02-14T01:03:07.918Z,94.68
2023-02-14T01:04:08.056Z,94.68
2023-02-14T01:05:08.818Z,94.17
2023-02-14T01:06:08.381Z,94.73
2023-02-14T01:07:08.557Z,94.53
2023-02-14T01:08:08.714Z,94.73
2023-02-14T01:09:08.869Z,95.67
2023-02-14T01:10:09.774Z,95.25
2023-02-14T01:11:09.198Z,95.04
2023-02-14T01:12:09.383Z,96.45
2023-02-14T01:13:10.774Z,96.30
2023-02-14T01:14:10.278Z,95.74
2023-02-14T01:15:09.941Z,95.32
2023-02-14T01:16:10.156Z,94.29
2023-02-14T01:17:10.347Z,93.66
2023-02-14T01:18:10.545Z,93.73
2023-02-14T01:19:10.693Z,93.68
2023-02-14T01:20:10.869Z,92.24
2023-02-14T01:21:11.035Z,91.76
2023-02-14T01:22:11.198Z,91.72
2023-02-14T01:23:12.275Z,91.61
2023-02-14T01:24:12.163Z,91.51
2023-02-14T01:25:11.700Z,91.03
2023-02-14T01:26:12.777Z,92.11
2023-02-14T01:27:12.819Z,93.15
2023-02-14T01:28:12.778Z,93.15
2023-02-14T01:29:12.450Z,93.66
2023-02-14T01:30:12.697Z,93.62
2023-02-14T01:31:13.395Z,92.96
2023-02-14T01:32:13.703Z,91.72
2023-02-14T01:33:13.136Z,92.13
2023-02-14T01:34:13.354Z,92.76
2023-02-14T01:35:14.320Z,91.99
2023-02-14T01:36:14.278Z,90.95
2023-02-14T01:37:13.928Z,91.05
2023-02-14T01:38:14.081Z,90.08
2023-02-14T01:39:14.245Z,90.70
2023-02-14T01:40:15.433Z,89.62
2023-02-14T01:41:15.331Z,88.70
2023-02-14T01:42:16.282Z,88.43
2023-02-14T01:43:14.920Z,89.09
2023-02-14T01:44:15.782Z,89.46
2023-02-14T01:45:15.305Z,90.02
2023-02-14T01:46:15.492Z,89.81
2023-02-14T01:47:16.287Z,90.08
2023-02-14T01:48:17.286Z,89.77
2023-02-14T01:49:16.051Z,89.04
2023-02-14T01:50:16.252Z,90.39
2023-02-14T01:51:16.449Z,90.08
2023-02-14T01:52:16.656Z,89.83
2023-02-14T01:53:16.824Z,89.42
2023-02-14T01:54:17.010Z,89.22
2023-02-14T01:55:17.233Z,88.70
2023-02-14T01:56:17.440Z,89.67
2023-02-14T01:57:17.627Z,89.56
2023-02-14T01:58:17.819Z,89.92
2023-02-14T01:59:18.787Z,90.60
2023-02-14T02:00:18.181Z,89.67
2023-02-14T02:01:18.956Z,90.39
2023-02-14T02:02:18.491Z,89.77
2023-02-14T02:03:20.653Z,89.87
2023-02-14T02:04:18.885Z,89.46
2023-02-14T02:05:19.069Z,89.67
2023-02-14T02:06:19.232Z,89.81
2023-02-14T02:07:19.410Z,90.53
2023-02-14T02:08:20.299Z,90.12
2023-02-14T02:09:19.834Z,90.95
2023-02-14T02:10:20.031Z,89.92
2023-02-14T02:11:20.147Z,89.67
2023-02-14T02:12:21.290Z,90.19
2023-02-14T02:13:21.155Z,89.98
2023-02-14T02:14:20.812Z,90.44
2023-02-14T02:15:21.010Z,89.67
2023-02-14T02:16:22.333Z,89.11
2023-02-14T02:17:21.347Z,89.11
2023-02-14T02:18:21.540Z,88.90
2023-02-14T02:19:21.697Z,88.94
2023-02-14T02:20:21.888Z,89.36
2023-02-14T02:21:22.082Z,89.67
2023-02-14T02:22:22.265Z,89.09
2023-02-14T02:23:23.332Z,89.96
2023-02-14T02:24:22.630Z,90.74
2023-02-14T02:25:22.833Z,90.02
2023-02-14T02:26:22.981Z,90.53
2023-02-14T02:27:24.432Z,89.96
2023-02-14T02:28:23.297Z,91.41
2023-02-14T02:29:23.463Z,91.16
2023-02-14T02:30:24.459Z,91.05
2023-02-14T02:31:23.829Z,90.12
2023-02-14T02:32:24.742Z,89.81
2023-02-14T02:33:24.127Z,89.81
2023-02-14T02:34:24.309Z,90.84
2023-02-14T02:35:24.472Z,90.23
2023-02-14T02:36:24.645Z,89.67
2023-02-14T02:37:24.773Z,89.50
2023-02-14T02:38:25.803Z,89.50
2023-02-14T02:39:25.196Z,90.47
2023-02-14T02:40:25.341Z,90.06
2023-02-14T02:41:26.302Z,90.78
2023-02-14T02:42:25.697Z,90.68
2023-02-14T02:43:25.844Z,90.89
2023-02-14T02:44:26.057Z,90.99
2023-02-14T02:45:26.242Z,90.89
2023-02-14T02:46:26.425Z,90.68
2023-02-14T02:47:26.584Z,89.92
2023-02-14T02:48:26.723Z,89.89
2023-02-14T02:49:28.303Z,91.41
2023-02-14T02:50:27.050Z,90.16
2023-02-14T02:51:27.198Z,89.96
2023-02-14T02:52:29.802Z,89.86
2023-02-14T02:53:27.525Z,91.51
2023-02-14T02:54:27.672Z,90.89
2023-02-14T02:55:27.842Z,90.89
2023-02-14T02:56:28.812Z,91.20
2023-02-14T02:57:28.219Z,91.26
2023-02-14T02:58:28.373Z,90.23
2023-02-14T02:59:29.302Z,90.12
2023-02-14T03:00:28.716Z,90.12
2023-02-14T03:01:28.926Z,89.77
2023-02-14T03:02:29.795Z,89.22
2023-02-14T03:03:30.205Z,89.32
2023-02-14T03:04:30.358Z,88.10
2023-02-14T03:05:29.591Z,87.21
2023-02-14T03:06:29.768Z,87.58
2023-02-14T03:07:30.812Z,87.27
2023-02-14T03:08:30.094Z,87.37
2023-02-14T03:09:30.404Z,87.07
2023-02-14T03:10:31.435Z,86.69
2023-02-14T03:11:30.618Z,87.31
2023-02-14T03:12:31.315Z,87.52
2023-02-14T03:13:30.995Z,87.31
2023-02-14T03:14:31.808Z,87.52
2023-02-14T03:15:32.829Z,87.10
2023-02-14T03:16:31.478Z,86.79
2023-02-14T03:17:31.685Z,87.10
2023-02-14T03:18:31.845Z,87.25
2023-02-14T03:19:31.990Z,87.46
2023-02-14T03:20:32.169Z,87.76
2023-02-14T03:21:32.333Z,87.73
2023-02-14T03:22:32.539Z,87.21
2023-02-14T03:23:33.309Z,87.31
2023-02-14T03:24:32.960Z,87.21
2023-02-14T03:25:33.118Z,87.41
2023-02-14T03:26:33.817Z,86.86
2023-02-14T03:27:33.468Z,86.96
2023-02-14T03:28:33.633Z,87.41
2023-02-14T03:29:34.672Z,86.96
2023-02-14T03:30:33.918Z,86.96
2023-02-14T03:31:34.216Z,87.17
2023-02-14T03:32:34.197Z,86.71
2023-02-14T03:33:34.340Z,85.89
2023-02-14T03:34:34.489Z,86.13
2023-02-14T03:35:34.673Z,85.68
2023-02-14T03:36:34.865Z,85.78
2023-02-14T03:37:35.019Z,85.89
2023-02-14T03:38:35.178Z,85.89
2023-02-14T03:39:35.364Z,85.52
2023-02-14T03:40:35.544Z,85.27
2023-02-14T03:41:35.700Z,85.37
2023-02-14T03:42:35.853Z,85.58
2023-02-14T03:43:36.034Z,85.47
2023-02-14T03:44:36.810Z,85.27
2023-02-14T03:45:36.338Z,85.58
2023-02-14T03:46:36.566Z,84.86
2023-02-14T03:47:36.626Z,85.37
2023-02-14T03:48:36.780Z,84.81
2023-02-14T03:49:37.853Z,84.51
2023-02-14T03:50:37.092Z,85.17
2023-02-14T03:51:37.276Z,85.06
2023-02-14T03:52:37.464Z,84.51
2023-02-14T03:53:37.604Z,84.72
2023-02-14T03:54:37.782Z,84.81
2023-02-14T03:55:38.685Z,83.99
2023-02-14T03:56:39.175Z,84.41
2023-02-14T03:57:38.439Z,84.09
2023-02-14T03:58:38.589Z,83.99
2023-02-14T03:59:38.750Z,84.20
2023-02-14T04:00:39.821Z,83.89
2023-02-14T04:01:39.831Z,84.09
2023-02-14T04:02:39.813Z,84.09
2023-02-14T04:03:40.519Z,84.30
2023-02-14T04:04:39.578Z,83.99
2023-02-14T04:05:39.747Z,83.89
2023-02-14T04:06:40.855Z,83.99
2023-02-14T04:07:40.813Z,83.68
2023-02-14T04:08:40.333Z,83.89
2023-02-14T04:09:40.499Z,83.68
2023-02-14T04:10:41.325Z,84.41
2023-02-14T04:11:40.821Z,83.89
2023-02-14T04:12:41.854Z,83.99
2023-02-14T04:13:41.122Z,83.85
2023-02-14T04:14:41.286Z,83.89
2023-02-14T04:15:41.478Z,83.95
2023-02-14T04:16:41.658Z,84.30
2023-02-14T04:17:41.821Z,84.20
2023-02-14T04:18:41.987Z,84.41
2023-02-14T04:19:42.179Z,83.95
2023-02-14T04:20:44.320Z,83.68
2023-02-14T04:21:42.556Z,83.58
2023-02-14T04:22:42.728Z,84.27
2023-02-14T04:23:42.878Z,84.16
2023-02-14T04:24:43.040Z,84.16
2023-02-14T04:25:43.180Z,83.78
2023-02-14T04:26:44.316Z,83.75
2023-02-14T04:27:43.479Z,83.78
2023-02-14T04:28:43.635Z,83.78
2023-02-14T04:29:43.810Z,83.85
2023-02-14T04:30:43.982Z,83.44
2023-02-14T04:31:44.312Z,83.17
2023-02-14T04:32:44.822Z,83.13
2023-02-14T04:33:44.490Z,83.33
2023-02-14T04:34:44.654Z,83.44
2023-02-14T04:35:45.321Z,83.89
2023-02-14T04:36:44.966Z,83.75
2023-02-14T04:37:45.112Z,83.78
2023-02-14T04:38:45.286Z,83.78
2023-02-14T04:39:46.396Z,83.89
2023-02-14T04:40:45.684Z,83.99
2023-02-14T04:41:45.836Z,84.03
2023-02-14T04:42:46.033Z,83.93
2023-02-14T04:43:46.406Z,84.55
2023-02-14T04:44:47.392Z,84.55
2023-02-14T04:45:46.643Z,85.06
2023-02-14T04:46:46.839Z,85.31
2023-02-14T04:47:47.009Z,85.10
2023-02-14T04:48:47.180Z,84.69
2023-02-14T04:49:48.316Z,85.52
2023-02-14T04:50:47.464Z,85.10
2023-02-14T04:51:47.631Z,85.35
2023-02-14T04:52:47.794Z,85.35
2023-02-14T04:53:50.773Z,86.21
2023-02-14T04:54:49.825Z,86.05
2023-02-14T04:55:48.334Z,87.39
2023-02-14T04:56:48.508Z,87.49
2023-02-14T04:57:48.693Z,87.54
2023-02-14T04:58:48.903Z,89.03
2023-02-14T04:59:49.820Z,89.19
2023-02-14T05:00:49.258Z,88.67
2023-02-14T05:01:49.951Z,88.61
2023-02-14T05:02:49.630Z,88.98
2023-02-14T05:03:50.822Z,88.78
2023-02-14T05:04:49.991Z,88.98
2023-02-14T05:05:50.121Z,88.53
2023-02-14T05:06:50.825Z,87.81
2023-02-14T05:07:51.324Z,88.74
2023-02-14T05:08:51.336Z,87.70
2023-02-14T05:09:50.733Z,88.18
2023-02-14T05:10:51.864Z,87.87
2023-02-14T05:11:51.131Z,87.56
2023-02-14T05:12:52.320Z,87.87
2023-02-14T05:13:51.457Z,86.83
2023-02-14T05:14:51.643Z,87.35
2023-02-14T05:15:52.949Z,87.10
2023-02-14T05:16:52.016Z,87.10
2023-02-14T05:17:52.171Z,86.38
2023-02-14T05:18:53.824Z,86.01
2023-02-14T05:19:52.555Z,85.80
2023-02-14T05:20:53.366Z,86.42
2023-02-14T05:21:52.890Z,87.35
2023-02-14T05:22:53.063Z,86.88
2023-02-14T05:23:53.221Z,87.70
2023-02-14T05:24:53.397Z,87.54
2023-02-14T05:25:54.323Z,87.74
2023-02-14T05:26:53.720Z,87.88
2023-02-14T05:27:54.818Z,88.26
2023-02-14T05:28:54.847Z,88.09
2023-02-14T05:29:54.371Z,88.40
2023-02-14T05:30:54.454Z,88.76
2023-02-14T05:31:54.572Z,89.11
2023-02-14T05:32:54.799Z,89.31
2023-02-14T05:33:55.024Z,89.52
2023-02-14T05:34:55.229Z,89.83
2023-02-14T05:35:56.191Z,89.52
2023-02-14T05:36:56.367Z,89.56
2023-02-14T05:37:55.788Z,90.33
2023-02-14T05:38:56.044Z,90.02
2023-02-14T05:39:56.231Z,90.23
2023-02-14T05:40:56.416Z,91.16
2023-02-14T05:41:58.492Z,90.58
2023-02-14T05:42:56.812Z,91.41
2023-02-14T05:43:57.012Z,91.00
2023-02-14T05:44:57.196Z,91.55
2023-02-14T05:45:57.472Z,92.03
2023-02-14T05:46:58.369Z,92.18
2023-02-14T05:47:57.732Z,91.93
2023-02-14T05:48:57.907Z,91.86
2023-02-14T05:49:58.081Z,92.90
2023-02-14T05:50:58.500Z,92.59
2023-02-14T05:51:58.429Z,92.84
2023-02-14T05:52:58.624Z,92.63
2023-02-14T05:53:58.756Z,93.26
2023-02-14T05:55:00.509Z,93.20
2023-02-14T05:56:00.170Z,93.82
2023-02-14T05:56:59.293Z,94.24
2023-02-14T05:57:59.476Z,94.13
2023-02-14T05:58:59.648Z,93.51
2023-02-14T05:59:59.830Z,93.97
2023-02-14T06:01:00.406Z,94.59
2023-02-14T06:02:02.930Z,94.07
2023-02-14T06:03:00.362Z,94.28
2023-02-14T06:04:00.928Z,94.74
2023-02-14T06:05:01.395Z,94.43
2023-02-14T06:06:00.931Z,95.15
2023-02-14T06:07:02.837Z,95.32
2023-02-14T06:08:01.349Z,95.67
2023-02-14T06:09:01.578Z,95.47
2023-02-14T06:10:01.875Z,95.67
2023-02-14T06:11:02.175Z,95.51
2023-02-14T06:12:02.099Z,95.72
2023-02-14T06:13:02.266Z,95.62
2023-02-14T06:14:02.455Z,96.76
2023-02-14T06:15:02.629Z,96.76
2023-02-14T06:16:02.826Z,96.91
2023-02-14T06:17:03.876Z,96.70
2023-02-14T06:18:03.202Z,97.49
2023-02-14T06:19:04.339Z,97.38
2023-02-14T06:20:03.505Z,97.22
2023-02-14T06:21:03.674Z,97.01
2023-02-14T06:22:06.211Z,97.53
2023-02-14T06:23:04.080Z,96.91
2023-02-14T06:24:04.275Z,96.80
2023-02-14T06:25:05.340Z,96.80
2023-02-14T06:26:04.600Z,97.33
2023-02-14T06:27:05.343Z,97.12
2023-02-14T06:28:05.000Z,97.53
2023-02-14T06:29:06.349Z,97.74
2023-02-14T06:30:05.437Z,97.74
2023-02-14T06:31:06.446Z,97.53
2023-02-14T06:32:05.831Z,97.33
2023-02-14T06:33:05.883Z,97.43
2023-02-14T06:34:06.062Z,98.16
2023-02-14T06:35:06.852Z,97.43
2023-02-14T06:36:07.402Z,97.43
2023-02-14T06:37:06.531Z,98.05
2023-02-14T06:38:07.360Z,97.85
2023-02-14T06:39:06.901Z,97.43
2023-02-14T06:40:08.856Z,97.64
2023-02-14T06:41:07.274Z,97.49
2023-02-14T06:42:07.442Z,97.53
2023-02-14T06:43:07.616Z,97.74
2023-02-14T06:44:08.800Z,97.12
2023-02-14T06:45:07.977Z,97.74
2023-02-14T06:46:08.321Z,97.22
2023-02-14T06:47:09.311Z,97.43
2023-02-14T06:48:09.480Z,97.64
2023-02-14T06:49:09.393Z,97.85
2023-02-14T06:50:08.837Z,97.12
2023-02-14T06:51:09.887Z,98.26
2023-02-14T06:52:09.195Z,98.20
2023-02-14T06:53:09.417Z,97.85
2023-02-14T06:54:10.389Z,98.26
2023-02-14T06:55:10.370Z,98.36
2023-02-14T06:56:10.890Z,98.68
2023-02-14T06:57:11.022Z,98.88
2023-02-14T06:58:11.888Z,98.36
2023-02-14T06:59:11.392Z,98.26
2023-02-14T07:00:11.415Z,98.74
2023-02-14T07:01:11.435Z,98.11
2023-02-14T07:02:12.409Z,98.17
2023-02-14T07:03:11.057Z,98.17
2023-02-14T07:04:12.865Z,98.80
2023-02-14T07:05:11.417Z,98.27
2023-02-14T07:06:33.388Z,98.44
2023-02-14T07:07:11.746Z,97.34
2023-02-14T07:08:12.407Z,97.13
2023-02-14T07:09:13.720Z,97.55
2023-02-14T07:10:12.215Z,97.81
2023-02-14T07:11:13.352Z,97.88
2023-02-14T07:12:12.496Z,97.56
2023-02-14T07:13:12.708Z,97.35
2023-02-14T07:14:13.867Z,96.52
2023-02-14T07:15:13.899Z,95.65
2023-02-14T07:16:13.329Z,95.86
2023-02-14T07:17:13.515Z,95.40
2023-02-14T07:18:13.682Z,95.61
2023-02-14T07:19:13.845Z,95.25
2023-02-14T07:20:14.034Z,94.68
2023-02-14T07:21:14.194Z,94.06
2023-02-14T07:22:14.380Z,93.25
2023-02-14T07:23:15.353Z,92.07
2023-02-14T07:24:15.359Z,91.51
2023-02-14T07:25:14.897Z,89.96
2023-02-14T07:26:15.066Z,90.47
2023-02-14T07:27:15.898Z,89.48
2023-02-14T07:28:17.354Z,89.94
2023-02-14T07:29:15.589Z,89.77
2023-02-14T07:30:16.481Z,90.04
2023-02-14T07:31:17.130Z,89.77
2023-02-14T07:32:17.050Z,90.60
2023-02-14T07:33:16.318Z,90.33
2023-02-14T07:34:17.351Z,91.37
2023-02-14T07:35:16.622Z,91.31
2023-02-14T07:36:16.801Z,91.83
2023-02-14T07:37:16.986Z,92.24
2023-02-14T07:38:17.854Z,92.35
2023-02-14T07:39:17.382Z,93.49
2023-02-14T07:40:18.852Z,92.76
2023-02-14T07:41:18.396Z,94.11
2023-02-14T07:42:17.933Z,94.08
2023-02-14T07:43:20.140Z,92.93
2023-02-14T07:44:19.212Z,90.31
2023-02-14T07:45:22.372Z,83.97
2023-02-14T07:46:19.617Z,80.05
2023-02-14T07:47:18.795Z,76.75
2023-02-14T07:48:19.907Z,74.36
2023-02-14T07:49:19.180Z,72.17
2023-02-14T07:50:19.342Z,70.67
2023-02-14T07:51:19.542Z,68.46
2023-02-14T07:52:19.719Z,68.12
2023-02-14T07:53:19.884Z,66.90
2023-02-14T07:54:20.407Z,66.94
2023-02-14T07:55:21.238Z,65.41
2023-02-14T07:56:20.454Z,65.34
2023-02-14T07:57:20.534Z,66.08
2023-02-14T07:58:20.701Z,66.39
2023-02-14T07:59:21.399Z,67.00
2023-02-14T08:00:21.050Z,67.58
2023-02-14T08:01:21.313Z,66.22
2023-02-14T08:02:22.357Z,65.68
2023-02-14T08:03:22.406Z,65.14
2023-02-14T08:04:21.797Z,64.40
2023-02-14T08:05:22.111Z,63.12
2023-02-14T08:06:22.171Z,61.69
2023-02-14T08:07:22.344Z,61.36
2023-02-14T08:08:22.528Z,61.33
2023-02-14T08:09:22.730Z,60.54
2023-02-14T08:10:22.892Z,62.36
2023-02-14T08:11:24.361Z,63.90
2023-02-14T08:12:23.237Z,66.28
2023-02-14T08:13:23.899Z,68.65
2023-02-14T08:14:24.864Z,70.26
2023-02-14T08:15:23.707Z,73.16
2023-02-14T08:16:23.895Z,73.33
2023-02-14T08:17:23.995Z,75.56
2023-02-14T08:18:24.165Z,76.42
2023-02-14T08:19:24.312Z,76.73
2023-02-14T08:20:24.439Z,77.17
2023-02-14T08:21:24.588Z,78.00
2023-02-14T08:22:24.759Z,78.51
2023-02-14T08:23:26.359Z,78.33
2023-02-14T08:24:26.359Z,75.73
2023-02-14T08:25:25.206Z,71.52
2023-02-14T08:26:25.373Z,69.85
2023-02-14T08:27:25.537Z,67.38
2023-02-14T08:28:25.711Z,66.16
2023-02-14T08:29:25.884Z,63.62
2023-02-14T08:30:26.142Z,61.40
2023-02-14T08:31:35.045Z,61.34
2023-02-14T08:32:28.463Z,59.64
2023-02-14T08:33:27.362Z,59.75
2023-02-14T08:34:26.762Z,59.67
2023-02-14T08:35:26.941Z,60.05
2023-02-14T08:36:27.728Z,59.41
2023-02-14T08:37:27.272Z,59.28
2023-02-14T08:38:27.458Z,58.78
2023-02-14T08:39:27.545Z,59.28
2023-02-14T08:40:27.727Z,57.71
2023-02-14T08:41:27.923Z,56.36
2023-02-14T08:42:28.920Z,56.54
2023-02-14T08:43:29.237Z,56.39
2023-02-14T08:44:28.517Z,57.73
2023-02-14T08:45:28.708Z,58.70
2023-02-14T08:46:28.958Z,59.31
2023-02-14T08:47:29.426Z,59.11
2023-02-14T08:48:29.207Z,59.31
2023-02-14T08:49:29.386Z,58.88
2023-02-14T08:50:30.421Z,57.40
2023-02-14T08:51:29.681Z,57.50
2023-02-14T08:52:29.883Z,57.78
2023-02-14T08:53:30.065Z,57.43
2023-02-14T08:54:30.224Z,58.80
2023-02-14T08:55:31.256Z,60.00
2023-02-14T08:56:31.409Z,61.05
2023-02-14T08:57:30.668Z,59.47
2023-02-14T08:58:32.795Z,60.11
2023-02-14T08:59:32.910Z,61.49
2023-02-14T09:00:31.264Z,61.33
2023-02-14T09:01:31.432Z,59.52
2023-02-14T09:02:31.640Z,59.69
2023-02-14T09:03:31.766Z,58.92
2023-02-14T09:04:31.959Z,57.53
2023-02-14T09:05:32.830Z,58.78
2023-02-14T09:06:32.309Z,59.26
2023-02-14T09:07:32.507Z,57.60
2023-02-14T09:08:32.751Z,57.48
2023-02-14T09:09:32.948Z,56.97
2023-02-14T09:10:33.181Z,57.42
2023-02-14T09:11:33.454Z,56.59
2023-02-14T09:12:34.386Z,57.60
2023-02-14T09:13:34.395Z,56.49
2023-02-14T09:14:34.429Z,57.73
2023-02-14T09:15:34.944Z,57.60
2023-02-14T09:16:34.288Z,56.49
2023-02-14T09:17:34.487Z,56.99
2023-02-14T09:18:35.427Z,56.26
2023-02-14T09:19:35.032Z,55.90
2023-02-14T09:20:35.033Z,55.96
2023-02-14T09:21:35.141Z,56.03
2023-02-14T09:22:35.931Z,57.88
2023-02-14T09:23:35.544Z,56.49
2023-02-14T09:24:35.942Z,56.52
2023-02-14T09:25:35.874Z,57.25
2023-02-14T09:26:37.928Z,57.48
2023-02-14T09:27:36.332Z,59.01
2023-02-14T09:28:36.546Z,59.21
2023-02-14T09:29:36.749Z,58.60
2023-02-14T09:30:36.938Z,57.43
2023-02-14T09:31:37.254Z,58.01
2023-02-14T09:32:37.447Z,56.54
2023-02-14T09:33:38.394Z,56.13
2023-02-14T09:34:37.687Z,56.46
2023-02-14T09:35:38.431Z,55.96
2023-02-14T09:36:38.904Z,57.07
2023-02-14T09:37:38.193Z,55.96
2023-02-14T09:38:38.404Z,57.07
2023-02-14T09:39:38.580Z,56.46
2023-02-14T09:40:39.832Z,55.80
2023-02-14T09:41:39.935Z,54.89
2023-02-14T09:42:39.218Z,54.94
2023-02-14T09:43:39.476Z,56.39
2023-02-14T09:44:40.894Z,55.15
2023-02-14T09:45:40.497Z,55.12
2023-02-14T09:46:39.920Z,54.82
2023-02-14T09:47:40.135Z,54.41
2023-02-14T09:48:40.917Z,55.35
2023-02-14T09:49:42.561Z,55.91
2023-02-14T09:50:40.775Z,57.12
2023-02-14T09:51:41.895Z,56.54
2023-02-14T09:52:41.052Z,57.86
2023-02-14T09:53:41.229Z,56.65
2023-02-14T09:54:41.938Z,56.62
2023-02-14T09:55:41.748Z,57.89
2023-02-14T09:56:51.264Z,57.59
2023-02-14T09:57:44.049Z,57.79
2023-02-14T09:58:42.167Z,57.92
2023-02-14T09:59:43.388Z,58.63
2023-02-14T10:00:43.542Z,57.79
2023-02-14T10:01:42.685Z,57.74
2023-02-14T10:02:42.853Z,58.15
2023-02-14T10:03:43.007Z,57.38
2023-02-14T10:04:43.146Z,57.28
2023-02-14T10:05:43.337Z,58.02
2023-02-14T10:06:44.401Z,57.81
2023-02-14T10:07:43.698Z,57.81
2023-02-14T10:08:43.860Z,57.28
2023-02-14T10:09:44.047Z,57.56
2023-02-14T10:10:44.235Z,57.79
2023-02-14T10:11:44.416Z,56.09
2023-02-14T10:12:44.627Z,56.01
2023-02-14T10:13:44.794Z,54.94
2023-02-14T10:14:44.967Z,54.61
2023-02-14T10:15:45.152Z,54.24
2023-02-14T10:16:45.423Z,53.72
2023-02-14T10:17:45.513Z,54.53
2023-02-14T10:18:45.674Z,55.12
2023-02-14T10:19:46.444Z,54.74
2023-02-14T10:20:45.993Z,52.79
2023-02-14T10:21:48.006Z,54.00
2023-02-14T10:22:47.953Z,54.18
2023-02-14T10:23:46.971Z,52.66
2023-02-14T10:24:46.612Z,53.58
2023-02-14T10:25:46.798Z,54.44
2023-02-14T10:26:47.022Z,55.02
2023-02-14T10:27:47.198Z,53.80
2023-02-14T10:28:47.372Z,53.70
2023-02-14T10:29:47.700Z,54.44
2023-02-14T10:30:47.855Z,54.74
2023-02-14T10:31:48.990Z,53.80
2023-02-14T10:32:48.159Z,54.71
2023-02-14T10:33:48.913Z,54.03
2023-02-14T10:34:50.366Z,55.04
2023-02-14T10:35:48.605Z,55.17
2023-02-14T10:36:48.804Z,55.17
2023-02-14T10:37:48.980Z,55.37
2023-02-14T10:38:49.915Z,54.90
2023-02-14T10:39:49.327Z,55.50
2023-02-14T10:40:49.511Z,55.53
2023-02-14T10:41:49.700Z,55.17
2023-02-14T10:42:49.906Z,55.25
2023-02-14T10:43:50.085Z,54.24
2023-02-14T10:44:50.274Z,54.59
2023-02-14T10:45:50.556Z,56.21
2023-02-14T10:46:51.428Z,55.91
2023-02-14T10:47:51.926Z,55.88
2023-02-14T10:48:51.965Z,55.17
2023-02-14T10:49:51.924Z,55.78
2023-02-14T10:50:51.248Z,54.94
2023-02-14T10:51:51.478Z,54.82
2023-02-14T10:52:52.461Z,53.07
2023-02-14T10:53:51.719Z,54.03
2023-02-14T10:54:51.929Z,53.75
2023-02-14T10:55:52.965Z,54.05
2023-02-14T10:56:52.246Z,54.57
2023-02-14T10:57:52.562Z,54.84
2023-02-14T10:58:55.433Z,54.77
2023-02-14T10:59:52.810Z,55.17
2023-02-14T11:00:53.967Z,53.96
2023-02-14T11:01:53.188Z,54.77
2023-02-14T11:02:53.932Z,54.86
2023-02-14T11:03:53.658Z,54.46
2023-02-14T11:04:53.772Z,53.85
2023-02-14T11:05:53.996Z,53.65
2023-02-14T11:06:54.217Z,54.74
2023-02-14T11:07:54.337Z,54.53
2023-02-14T11:08:57.258Z,54.57
2023-02-14T11:09:56.474Z,55.47
2023-02-14T11:10:55.456Z,54.74
2023-02-14T11:11:55.001Z,54.69
2023-02-14T11:12:55.488Z,54.59
2023-02-14T11:13:55.429Z,55.19
2023-02-14T11:14:55.591Z,54.89
2023-02-14T11:15:55.760Z,53.85
2023-02-14T11:16:55.974Z,53.65
2023-02-14T11:17:56.048Z,52.94
2023-02-14T11:18:56.253Z,52.76
2023-02-14T11:19:56.427Z,54.41
2023-02-14T11:20:56.607Z,55.02
2023-02-14T11:21:56.778Z,53.52
2023-02-14T11:22:56.975Z,53.72
2023-02-14T11:23:57.171Z,53.93
2023-02-14T11:24:57.334Z,54.77
2023-02-14T11:25:57.808Z,54.13
2023-02-14T11:26:58.479Z,54.44
2023-02-14T11:27:57.861Z,54.53
2023-02-14T11:28:58.063Z,53.63
2023-02-14T11:29:58.499Z,53.72
2023-02-14T11:30:59.281Z,55.22
2023-02-14T11:32:00.005Z,54.00
2023-02-14T11:32:58.769Z,53.70
2023-02-14T11:33:58.939Z,53.09
2023-02-14T11:34:59.946Z,54.21
2023-02-14T11:36:00.306Z,54.51
2023-02-14T11:36:59.580Z,54.59
2023-02-14T11:38:01.444Z,53.80
2023-02-14T11:39:00.498Z,54.99
2023-02-14T11:40:00.814Z,54.76
2023-02-14T11:41:00.648Z,54.64
2023-02-14T11:42:00.526Z,53.32
2023-02-14T11:43:13.370Z,52.61
2023-02-14T11:44:03.446Z,52.11
2023-02-14T11:45:01.505Z,51.81
2023-02-14T11:46:01.331Z,51.83
2023-02-14T11:47:02.962Z,52.72
2023-02-14T11:48:01.592Z,53.72
2023-02-14T11:49:01.785Z,52.51
2023-02-14T11:50:01.965Z,52.84
2023-02-14T11:51:02.218Z,53.32
2023-02-14T11:52:02.292Z,54.97
2023-02-14T11:53:02.446Z,53.52
2023-02-14T11:54:02.632Z,52.92
2023-02-14T11:55:02.866Z,52.01
2023-02-14T11:56:03.116Z,53.83
2023-02-14T11:57:03.327Z,52.61
2023-02-14T11:58:03.525Z,52.23
2023-02-14T11:59:03.858Z,53.55
2023-02-14T12:00:05.504Z,53.75
2023-02-14T12:01:04.990Z,53.17
2023-02-14T12:02:04.286Z,54.08
2023-02-14T12:03:04.515Z,53.88
2023-02-14T12:04:04.698Z,54.18
2023-02-14T12:05:04.883Z,54.41
2023-02-14T12:06:05.053Z,54.99
2023-02-14T12:07:05.960Z,54.64
2023-02-14T12:08:05.355Z,55.15
2023-02-14T12:09:06.458Z,54.21
2023-02-14T12:10:05.706Z,54.71
2023-02-14T12:11:05.844Z,54.11
2023-02-14T12:12:07.000Z,54.74
2023-02-14T12:13:06.961Z,54.61
2023-02-14T12:14:06.327Z,55.22
2023-02-14T12:15:07.960Z,55.32
2023-02-14T12:16:09.482Z,53.78
2023-02-14T12:17:06.824Z,53.88
2023-02-14T12:18:06.984Z,53.80
2023-02-14T12:19:07.998Z,54.38
2023-02-14T12:20:07.379Z,54.08
2023-02-14T12:21:07.519Z,53.70
2023-02-14T12:22:08.453Z,53.78
2023-02-14T12:23:09.013Z,53.67
2023-02-14T12:24:08.029Z,53.67
2023-02-14T12:25:09.462Z,53.58
2023-02-14T12:26:08.358Z,54.97
2023-02-14T12:27:09.465Z,53.85
2023-02-14T12:28:08.732Z,53.83
2023-02-14T12:29:08.903Z,53.22
2023-02-14T12:30:09.137Z,53.22
2023-02-14T12:31:10.036Z,52.61
2023-02-14T12:32:09.439Z,52.31
2023-02-14T12:33:10.462Z,52.33
2023-02-14T12:34:09.726Z,53.05
2023-02-14T12:35:09.874Z,54.97
2023-02-14T12:36:10.092Z,53.93
2023-02-14T12:37:11.961Z,52.61
2023-02-14T12:38:10.490Z,51.81
2023-02-14T12:39:10.668Z,51.83
2023-02-14T12:40:10.831Z,52.54
2023-02-14T12:41:11.511Z,52.74
2023-02-14T12:42:12.463Z,52.94
2023-02-14T12:43:11.973Z,54.05
2023-02-14T12:44:11.501Z,52.64
2023-02-14T12:45:12.471Z,53.65
2023-02-14T12:46:11.944Z,53.75
2023-02-14T12:47:12.055Z,53.02
2023-02-14T12:48:15.198Z,51.73
2023-02-14T12:49:12.367Z,51.83
2023-02-14T12:50:12.528Z,53.47
2023-02-14T12:51:12.703Z,52.46
2023-02-14T12:52:12.909Z,52.06
2023-02-14T12:53:13.076Z,52.23
2023-02-14T12:54:13.965Z,52.06
2023-02-14T12:55:13.348Z,52.76